UUDD Airport Informations

Runway Information
Runway 14C Length 7776 ft width 174 ft
Elevation 585 ft Threshold ft Heading 146
Runway 32C Length 7776 ft Width 174 ft
Elevation 538 ft Threshold ft Heading 326
Runway 14R Length 11483 ft width 197 ft
Elevation 588 ft Threshold ft Heading 146
Runway 32L Length 11483 ft Width 197 ft
Elevation 527 ft Threshold ft Heading 326
Runway 14L Length 12448 ft width 174 ft
Elevation 551 ft Threshold ft Heading 146
Runway 32R Length 12448 ft Width 174 ft
Elevation 519 ft Threshold ft Heading 326
Airport Frequencies
Type APP Name APP Frequency 120.6 MHZ
Type ATIS Name ATIS Frequency 128.3 MHZ
Type CLD Name DELIVERY Frequency 123.75 MHZ
Type GND Name TAXIING Frequency 119 MHZ
Type MISC Name TRANSIT Frequency 129.15 MHZ
Type PMSV Name VOLMET Frequency 127.875 MHZ
Type RDR Name KRUG Frequency 127.7 MHZ
Type RMP Name APRON Frequency 130.6 MHZ
Type TWR Name TWR Frequency 118.6 MHZ
Airport Navaids
Type NDB Name Domodedovo Frequency 437 KHZ
Type NDB Name Domodedovo Frequency 659 KHZ
Type NDB Name Domodedovo Frequency 659 KHZ
Type NDB Name Domodedovo Frequency 437 KHZ
Type NDB Name Domodedovo Frequency 887 KHZ
Type NDB Name Domodedovo Frequency 320 KHZ
Type NDB Name Domodedovo Frequency 320 KHZ
Type NDB Name Domodedovo Frequency 887 KHZ
Airport Weather Information & NOTAM
ADDS - METARS form results

(1252 UTC 14 August 2022)
Data provider http://aviationweather.gov/metar/data/
 
METAR text: UUDD 141230Z 14002MPS 110V210 CAVOK 27/10 Q1021 R88/60D NOSIG
Conditions at: UUDD (MOSCOW/DOMODEDOV, RU) observed 1230 UTC 14 August 2022
Temperature: 27.0°C (81°F)
Dewpoint: 10.0°C (50°F) [RH = 34%]
Pressure (altimeter): 30.15 inches Hg (1021.0 mb)
Winds: from the SE (140 degrees) at 5 MPH (4 knots; 2.1 m/s)
Visibility: 6 or more miles (10+ km)
Ceiling: ceiling and visibility are OK
Clouds: unknown
Weather: no significant weather observed at this time

METAR text: UUDD 141200Z 12003MPS 080V160 CAVOK 28/09 Q1021 R88/60D NOSIG
Conditions at: UUDD (MOSCOW/DOMODEDOV, RU) observed 1200 UTC 14 August 2022
Temperature: 28.0°C (82°F)
Dewpoint: 9.0°C (48°F) [RH = 30%]
Pressure (altimeter): 30.15 inches Hg (1021.0 mb)
Winds: from the ESE (120 degrees) at 7 MPH (6 knots; 3.1 m/s)
Visibility: 6 or more miles (10+ km)
Ceiling: ceiling and visibility are OK
Clouds: unknown
Weather: no significant weather observed at this time

Forecast for: UUDD (MOSCOW/DOMODEDOV, RU)
Text: TAF UUDD 141100Z 1412/1518 08003MPS CAVOK TX29/1512Z TN16/1502Z
Forecast period: 1200 UTC 14 August 2022 to 1800 UTC 15 August 2022
Forecast type: FROM: standard forecast or significant change
Winds: from the E (80 degrees) at 7 MPH (6 knots; 3.1 m/s)
Visibility: 6 or more miles (10+ km)
Ceiling: unknown
Clouds: missing
Weather: no significant weather forecast for this period